createdAt,value
2023-03-30T00:01:15.461Z,38.93
2023-03-30T00:03:47.795Z,39.02
2023-03-30T00:06:23.346Z,38.97
2023-03-30T00:08:58.786Z,39.00
2023-03-30T00:11:27.610Z,38.94
2023-03-30T00:13:56.443Z,38.96
2023-03-30T00:16:24.974Z,39.06
2023-03-30T00:18:53.705Z,39.18
2023-03-30T00:21:22.158Z,39.15
2023-03-30T00:23:52.562Z,39.21
2023-03-30T00:26:21.552Z,39.15
2023-03-30T00:28:52.422Z,39.12
2023-03-30T00:31:21.320Z,39.19
2023-03-30T00:33:51.007Z,39.12
2023-03-30T00:36:22.584Z,39.27
2023-03-30T00:38:51.432Z,39.22
2023-03-30T00:41:19.869Z,39.28
2023-03-30T00:44:07.167Z,39.19
2023-03-30T00:46:35.715Z,39.19
2023-03-30T00:49:08.863Z,39.14
2023-03-30T00:51:39.251Z,39.35
2023-03-30T00:54:12.999Z,39.15
2023-03-30T00:56:41.631Z,39.21
2023-03-30T00:59:10.615Z,39.21
2023-03-30T01:01:40.919Z,39.17
2023-03-30T01:04:11.294Z,39.18
2023-03-30T01:06:40.722Z,39.28
2023-03-30T01:09:09.743Z,39.48
2023-03-30T01:11:38.770Z,39.35
2023-03-30T01:14:08.782Z,39.31
2023-03-30T01:16:54.068Z,39.24
2023-03-30T01:20:13.091Z,39.38
2023-03-30T01:23:11.109Z,39.32
2023-03-30T01:26:07.234Z,39.17
2023-03-30T01:28:51.976Z,39.43
2023-03-30T01:31:40.075Z,39.55
2023-03-30T01:34:36.224Z,39.36
2023-03-30T01:37:26.397Z,39.47
2023-03-30T01:40:19.248Z,39.47
2023-03-30T01:43:10.358Z,39.46
2023-03-30T01:46:16.787Z,39.58
2023-03-30T01:49:06.708Z,39.38
2023-03-30T01:51:41.157Z,39.51
2023-03-30T01:54:23.188Z,39.68
2023-03-30T01:56:55.843Z,39.53
2023-03-30T01:59:51.957Z,39.59
2023-03-30T02:02:22.991Z,39.86
2023-03-30T02:04:53.873Z,39.55
2023-03-30T02:07:25.677Z,39.59
2023-03-30T02:09:56.747Z,39.41
2023-03-30T02:12:25.427Z,39.81
2023-03-30T02:14:54.089Z,39.87
2023-03-30T02:17:23.706Z,39.67
2023-03-30T02:19:54.768Z,39.75
2023-03-30T02:22:24.031Z,39.72
2023-03-30T02:24:56.253Z,39.69
2023-03-30T02:27:25.564Z,39.74
2023-03-30T02:29:56.748Z,39.83
2023-03-30T02:32:33.940Z,39.70
2023-03-30T02:35:48.995Z,39.65
2023-03-30T02:38:50.760Z,39.74
2023-03-30T02:41:33.047Z,39.88
2023-03-30T02:44:34.370Z,39.82
2023-03-30T02:47:32.286Z,39.71
2023-03-30T02:50:36.322Z,39.62
2023-03-30T02:53:37.770Z,39.90
2023-03-30T02:56:38.072Z,39.79
2023-03-30T02:59:34.216Z,39.88
2023-03-30T03:02:18.603Z,39.90
2023-03-30T03:04:50.579Z,40.07
2023-03-30T03:07:38.888Z,40.03
2023-03-30T03:10:08.754Z,40.15
2023-03-30T03:12:37.301Z,40.01
2023-03-30T03:15:06.842Z,40.08
2023-03-30T03:17:39.490Z,40.10
2023-03-30T03:20:10.832Z,40.08
2023-03-30T03:22:39.268Z,40.05
2023-03-30T03:25:08.900Z,40.17
2023-03-30T03:27:56.079Z,39.87
2023-03-30T03:30:28.341Z,40.00
2023-03-30T03:33:23.078Z,39.81
2023-03-30T03:36:08.109Z,40.22
2023-03-30T03:38:41.328Z,40.33
2023-03-30T03:41:10.044Z,40.30
2023-03-30T03:43:44.540Z,40.32
2023-03-30T03:46:14.143Z,40.24
2023-03-30T03:48:43.062Z,40.43
2023-03-30T03:51:11.745Z,40.44
2023-03-30T03:53:41.042Z,40.38
2023-03-30T03:56:15.074Z,40.19
2023-03-30T03:58:43.461Z,40.29
2023-03-30T04:01:14.617Z,40.39
2023-03-30T04:03:43.086Z,40.42
2023-03-30T04:06:11.746Z,40.41
2023-03-30T04:08:40.175Z,40.40
2023-03-30T04:11:34.978Z,40.46
2023-03-30T04:14:26.687Z,40.56
2023-03-30T04:17:15.066Z,40.58
2023-03-30T04:20:06.197Z,40.27
2023-03-30T04:22:50.598Z,40.54
2023-03-30T04:25:42.044Z,40.52
2023-03-30T04:28:42.016Z,40.48
2023-03-30T04:31:47.324Z,40.57
2023-03-30T04:34:22.063Z,40.68
2023-03-30T04:37:30.547Z,40.76
2023-03-30T04:40:17.877Z,40.48
2023-03-30T04:43:23.170Z,40.56
2023-03-30T04:46:15.086Z,40.64
2023-03-30T04:49:00.960Z,40.60
2023-03-30T04:51:32.509Z,40.68
2023-03-30T04:54:12.147Z,40.62
2023-03-30T04:57:19.488Z,40.71
2023-03-30T05:00:08.376Z,40.75
2023-03-30T05:03:11.350Z,40.50
2023-03-30T05:06:03.449Z,40.74
2023-03-30T05:09:04.690Z,40.76
2023-03-30T05:11:51.782Z,40.83
2023-03-30T05:14:31.762Z,40.76
2023-03-30T05:17:23.564Z,40.72
2023-03-30T05:20:01.140Z,40.70
2023-03-30T05:22:47.290Z,40.76
2023-03-30T05:25:39.244Z,40.71
2023-03-30T05:28:32.355Z,40.70
2023-03-30T05:31:30.813Z,40.78
2023-03-30T05:34:22.529Z,40.77
2023-03-30T05:37:26.873Z,40.81
2023-03-30T05:40:18.234Z,40.75
2023-03-30T05:43:05.392Z,40.77
2023-03-30T05:45:57.400Z,40.68
2023-03-30T05:48:37.381Z,40.86
2023-03-30T05:51:20.948Z,40.71
2023-03-30T05:54:12.951Z,40.87
2023-03-30T05:57:00.323Z,40.77
2023-03-30T05:59:45.694Z,40.63
2023-03-30T06:02:24.856Z,40.66
2023-03-30T06:05:02.110Z,40.77
2023-03-30T06:07:30.959Z,40.91
2023-03-30T06:10:01.863Z,40.71
2023-03-30T06:12:32.139Z,40.80
2023-03-30T06:15:03.404Z,40.77
2023-03-30T06:17:53.033Z,40.75
2023-03-30T06:20:24.918Z,40.70
2023-03-30T06:22:53.661Z,40.94
2023-03-30T06:25:26.180Z,41.03
2023-03-30T06:27:58.054Z,40.88
2023-03-30T06:30:28.510Z,40.98
2023-03-30T06:33:02.470Z,40.92
2023-03-30T06:35:51.162Z,41.09
2023-03-30T06:38:23.101Z,41.06
2023-03-30T06:40:54.172Z,40.98
2023-03-30T06:43:26.471Z,41.13
2023-03-30T06:46:21.592Z,41.25
2023-03-30T06:48:52.637Z,41.09
2023-03-30T06:51:36.103Z,41.30
2023-03-30T06:54:06.651Z,41.24
2023-03-30T06:56:35.921Z,41.14
2023-03-30T06:59:10.061Z,41.16
2023-03-30T07:01:59.767Z,41.13
2023-03-30T07:04:47.159Z,41.15
2023-03-30T07:07:28.390Z,41.27
2023-03-30T07:09:57.058Z,41.48
2023-03-30T07:12:26.266Z,41.55
2023-03-30T07:14:54.904Z,41.60
2023-03-30T07:17:26.831Z,41.58
2023-03-30T07:19:55.992Z,41.55
2023-03-30T07:22:25.367Z,41.75
2023-03-30T07:24:54.741Z,41.75
2023-03-30T07:27:25.396Z,41.74
2023-03-30T07:30:04.618Z,41.52
2023-03-30T07:32:40.611Z,41.49
2023-03-30T07:35:10.685Z,41.70
2023-03-30T07:37:40.307Z,41.91
2023-03-30T07:40:10.466Z,41.70
2023-03-30T07:42:42.425Z,41.54
2023-03-30T07:45:13.565Z,41.95
2023-03-30T07:47:45.078Z,41.77
2023-03-30T07:50:13.886Z,41.91
2023-03-30T07:52:43.813Z,41.78
2023-03-30T07:55:14.018Z,41.82
2023-03-30T07:57:49.838Z,41.59
2023-03-30T08:00:19.434Z,41.65
2023-03-30T08:03:07.177Z,41.58
2023-03-30T08:05:37.972Z,41.62
2023-03-30T08:08:18.227Z,41.76
2023-03-30T08:10:46.822Z,41.74
2023-03-30T08:13:15.893Z,41.67
2023-03-30T08:15:45.989Z,41.85
2023-03-30T08:18:15.429Z,41.85
2023-03-30T08:20:44.214Z,41.66
2023-03-30T08:23:13.900Z,41.54
2023-03-30T08:25:44.170Z,41.75
2023-03-30T08:28:14.827Z,41.55
2023-03-30T08:30:43.342Z,41.50
2023-03-30T08:33:13.797Z,41.78
2023-03-30T08:35:48.279Z,41.81
2023-03-30T08:38:17.963Z,41.60
2023-03-30T08:40:47.805Z,41.53
2023-03-30T08:43:53.525Z,41.58
2023-03-30T08:46:22.282Z,41.56
2023-03-30T08:48:51.311Z,41.51
2023-03-30T08:51:27.903Z,41.64
2023-03-30T08:54:02.759Z,41.79
2023-03-30T08:56:59.852Z,41.49
2023-03-30T08:59:58.082Z,41.63
2023-03-30T09:02:39.238Z,41.51
2023-03-30T09:05:27.603Z,41.28
2023-03-30T09:08:23.969Z,41.53
2023-03-30T09:10:58.793Z,41.43
2023-03-30T09:13:34.533Z,41.57
2023-03-30T09:16:44.161Z,41.72
2023-03-30T09:19:27.581Z,41.82
2023-03-30T09:21:56.438Z,41.76
2023-03-30T09:24:28.182Z,41.65
2023-03-30T09:27:08.423Z,41.58
2023-03-30T09:29:49.355Z,41.51
2023-03-30T09:32:40.915Z,41.54
2023-03-30T09:35:16.358Z,41.61
2023-03-30T09:37:45.261Z,41.45
2023-03-30T09:41:01.537Z,41.77
2023-03-30T09:43:48.590Z,41.76
2023-03-30T09:46:17.383Z,41.59
2023-03-30T09:48:48.197Z,41.76
2023-03-30T09:51:32.069Z,41.57
2023-03-30T09:54:05.351Z,41.72
2023-03-30T09:56:51.875Z,41.63
2023-03-30T09:59:38.249Z,41.74
2023-03-30T10:02:18.753Z,41.67
2023-03-30T10:04:53.907Z,41.69
2023-03-30T10:07:27.360Z,41.68
2023-03-30T10:09:56.455Z,41.77
2023-03-30T10:12:28.974Z,41.70
2023-03-30T10:15:01.752Z,42.09
2023-03-30T10:17:31.535Z,41.61
2023-03-30T10:20:31.016Z,41.77
2023-03-30T10:23:09.226Z,41.62
2023-03-30T10:25:38.744Z,41.56
2023-03-30T10:28:13.855Z,41.91
2023-03-30T10:33:44.595Z,41.69
2023-03-30T10:36:15.212Z,42.04
2023-03-30T10:38:44.167Z,41.65
2023-03-30T10:41:22.943Z,41.72
2023-03-30T10:43:51.870Z,41.83
2023-03-30T10:46:23.500Z,41.95
2023-03-30T10:49:47.675Z,41.90
2023-03-30T10:53:09.796Z,41.77
2023-03-30T10:56:01.568Z,41.89
2023-03-30T10:58:43.757Z,41.99
2023-03-30T11:01:53.418Z,41.88
2023-03-30T11:04:43.576Z,41.64
2023-03-30T11:07:32.863Z,41.74
2023-03-30T11:10:10.975Z,41.58
2023-03-30T11:12:43.445Z,41.81
2023-03-30T11:15:42.517Z,42.13
2023-03-30T11:18:39.970Z,43.82
2023-03-30T11:21:36.524Z,44.08
2023-03-30T11:24:20.182Z,46.38
2023-03-30T11:26:53.790Z,46.68
2023-03-30T11:29:30.536Z,46.57
2023-03-30T11:32:32.048Z,47.14
2023-03-30T11:35:11.149Z,47.46
2023-03-30T11:38:14.356Z,49.11
2023-03-30T11:40:46.584Z,50.16
2023-03-30T11:43:26.609Z,50.16
2023-03-30T11:46:08.928Z,49.64
2023-03-30T11:49:02.640Z,48.68
2023-03-30T11:52:29.066Z,49.31
2023-03-30T11:55:39.832Z,47.69
2023-03-30T11:58:34.852Z,47.12
2023-03-30T12:01:12.476Z,48.07
2023-03-30T12:03:44.220Z,48.25
2023-03-30T12:06:34.418Z,48.28
2023-03-30T12:09:26.622Z,48.25
2023-03-30T12:12:16.518Z,47.88
2023-03-30T12:14:50.297Z,47.69
2023-03-30T12:17:34.042Z,47.77
2023-03-30T12:20:09.676Z,47.25
2023-03-30T12:22:50.755Z,47.37
2023-03-30T12:25:31.171Z,46.45
2023-03-30T12:28:04.614Z,46.45
2023-03-30T12:30:44.298Z,47.09
2023-03-30T12:33:37.399Z,46.64
2023-03-30T12:36:26.478Z,46.75
2023-03-30T12:39:02.677Z,46.37
2023-03-30T12:41:42.257Z,46.27
2023-03-30T12:44:37.007Z,46.34
2023-03-30T12:47:22.846Z,46.13
2023-03-30T12:50:32.015Z,46.04
2023-03-30T12:53:38.689Z,45.98
2023-03-30T12:56:29.355Z,45.88
2023-03-30T12:59:27.398Z,45.84
2023-03-30T13:02:48.809Z,45.52
2023-03-30T13:05:27.591Z,45.53
2023-03-30T13:07:56.551Z,45.64
2023-03-30T13:10:31.230Z,45.45
2023-03-30T13:13:02.088Z,45.47
2023-03-30T13:15:33.147Z,45.48
2023-03-30T13:18:14.672Z,45.30
2023-03-30T13:20:49.143Z,45.39
2023-03-30T13:23:21.008Z,45.26
2023-03-30T13:26:06.363Z,45.14
2023-03-30T13:29:00.269Z,45.28
2023-03-30T13:31:46.598Z,45.19
2023-03-30T13:34:32.851Z,45.00
2023-03-30T13:37:10.797Z,45.06
2023-03-30T13:40:39.648Z,44.89
2023-03-30T13:43:34.069Z,44.77
2023-03-30T13:46:29.004Z,45.00
2023-03-30T13:49:36.965Z,45.30
2023-03-30T13:52:23.572Z,45.36
2023-03-30T13:54:52.127Z,45.09
2023-03-30T13:57:31.702Z,45.11
2023-03-30T14:00:25.675Z,45.33
2023-03-30T14:02:54.597Z,45.27
2023-03-30T14:05:26.626Z,45.30
2023-03-30T14:07:58.889Z,45.25
2023-03-30T14:10:27.472Z,45.18
2023-03-30T14:12:57.254Z,45.29
2023-03-30T14:15:36.071Z,45.27
2023-03-30T14:18:05.669Z,45.26
2023-03-30T14:20:46.972Z,45.44
2023-03-30T14:23:41.469Z,45.35
2023-03-30T14:26:25.113Z,45.31
2023-03-30T14:29:04.251Z,45.37
2023-03-30T14:31:40.682Z,45.33
2023-03-30T14:34:32.771Z,45.33
2023-03-30T14:37:04.788Z,45.40
2023-03-30T14:39:38.643Z,45.15
2023-03-30T14:42:22.067Z,45.34
2023-03-30T14:44:53.514Z,45.18
2023-03-30T14:47:26.885Z,45.27
2023-03-30T14:50:01.381Z,45.22
2023-03-30T14:52:39.643Z,44.92
2023-03-30T14:55:19.775Z,44.96
2023-03-30T14:57:48.462Z,44.85
2023-03-30T15:00:22.933Z,44.73
2023-03-30T15:03:00.960Z,44.80
2023-03-30T15:05:41.960Z,44.56
2023-03-30T15:08:27.398Z,44.52
2023-03-30T15:10:58.992Z,44.47
2023-03-30T15:13:38.497Z,44.43
2023-03-30T15:16:07.699Z,44.16
2023-03-30T15:18:36.313Z,44.46
2023-03-30T15:21:06.009Z,44.55
2023-03-30T15:23:39.019Z,44.48
2023-03-30T15:26:08.307Z,44.48
2023-03-30T15:28:46.169Z,44.58
2023-03-30T15:31:16.541Z,44.60
2023-03-30T15:33:53.435Z,44.58
2023-03-30T15:36:25.514Z,44.58
2023-03-30T15:38:56.569Z,44.49
2023-03-30T15:41:57.076Z,44.45
2023-03-30T15:44:25.557Z,44.64
2023-03-30T15:46:57.916Z,44.53
2023-03-30T15:49:50.815Z,44.72
2023-03-30T15:52:32.645Z,44.33
2023-03-30T15:55:19.770Z,44.60
2023-03-30T15:57:49.237Z,44.44
2023-03-30T16:00:23.325Z,44.47
2023-03-30T16:02:59.980Z,44.76
2023-03-30T16:05:32.063Z,44.41
2023-03-30T16:08:01.057Z,44.52
2023-03-30T16:10:31.836Z,44.31
2023-03-30T16:13:01.597Z,44.46
2023-03-30T16:15:32.075Z,44.50
2023-03-30T16:18:01.291Z,44.56
2023-03-30T16:20:31.817Z,44.40
2023-03-30T16:23:00.778Z,44.29
2023-03-30T16:28:01.619Z,44.27
2023-03-30T16:30:35.238Z,44.22
2023-03-30T16:33:04.684Z,44.36
2023-03-30T16:35:33.543Z,44.40
2023-03-30T16:38:02.620Z,44.42
2023-03-30T16:40:56.597Z,44.38
2023-03-30T16:43:27.420Z,44.49
2023-03-30T16:45:56.122Z,44.30
2023-03-30T16:48:27.250Z,44.26
2023-03-30T16:50:57.209Z,44.26
2023-03-30T16:53:26.393Z,44.26
2023-03-30T16:55:55.099Z,44.31
2023-03-30T16:58:24.399Z,44.42
2023-03-30T17:00:56.459Z,44.36
2023-03-30T17:03:25.549Z,44.51
2023-03-30T17:05:54.288Z,44.37
2023-03-30T17:08:28.340Z,44.60
2023-03-30T17:11:01.335Z,44.65
2023-03-30T17:13:30.924Z,44.71
2023-03-30T17:16:01.332Z,44.72
2023-03-30T17:18:30.456Z,45.01
2023-03-30T17:21:00.780Z,45.21
2023-03-30T17:23:32.422Z,45.25
2023-03-30T17:26:02.007Z,45.12
2023-03-30T17:28:36.108Z,45.37
2023-03-30T17:31:09.932Z,45.35
2023-03-30T17:33:40.240Z,45.30
2023-03-30T17:36:16.986Z,45.42
2023-03-30T17:38:46.338Z,45.35
2023-03-30T17:41:15.954Z,45.48
2023-03-30T17:43:44.931Z,45.47
2023-03-30T17:46:14.220Z,45.59
2023-03-30T17:48:43.178Z,45.42
2023-03-30T17:51:11.708Z,45.52
2023-03-30T17:53:40.762Z,45.50
2023-03-30T17:56:14.220Z,45.57
2023-03-30T17:58:43.216Z,45.73
2023-03-30T18:01:13.251Z,45.72
2023-03-30T18:03:42.886Z,45.70
2023-03-30T18:06:11.970Z,45.83
2023-03-30T18:08:41.186Z,45.68
2023-03-30T18:11:09.766Z,45.55
2023-03-30T18:13:38.838Z,45.68
2023-03-30T18:16:07.632Z,45.39
2023-03-30T18:18:36.681Z,45.77
2023-03-30T18:21:06.976Z,45.62
2023-03-30T18:23:36.296Z,45.52
2023-03-30T18:26:12.209Z,45.86
2023-03-30T18:28:44.300Z,45.64
2023-03-30T18:31:13.179Z,45.52
2023-03-30T18:33:42.418Z,45.77
2023-03-30T18:36:13.235Z,45.67
2023-03-30T18:38:42.747Z,45.60
2023-03-30T18:41:12.723Z,45.68
2023-03-30T18:43:41.723Z,45.44
2023-03-30T18:46:11.840Z,45.56
2023-03-30T18:48:40.872Z,45.38
2023-03-30T18:51:11.193Z,45.67
2023-03-30T18:53:40.319Z,45.15
2023-03-30T18:56:11.711Z,45.73
2023-03-30T18:58:42.249Z,45.38
2023-03-30T19:01:13.629Z,45.60
2023-03-30T19:03:44.975Z,45.34
2023-03-30T19:06:16.751Z,45.51
2023-03-30T19:08:46.651Z,45.03
2023-03-30T19:11:23.383Z,45.57
2023-03-30T19:13:52.783Z,45.57
2023-03-30T19:16:22.908Z,45.59
2023-03-30T19:18:53.885Z,45.15
2023-03-30T19:21:22.541Z,45.52
2023-03-30T19:23:51.853Z,45.66
2023-03-30T19:26:21.346Z,45.61
2023-03-30T19:28:50.814Z,45.04
2023-03-30T19:31:19.521Z,45.38
2023-03-30T19:33:48.935Z,45.45
2023-03-30T19:36:17.551Z,45.22
2023-03-30T19:38:46.865Z,45.04
2023-03-30T19:41:15.659Z,45.18
2023-03-30T19:43:45.757Z,45.44
2023-03-30T19:46:14.574Z,45.21
2023-03-30T19:48:43.542Z,45.26
2023-03-30T19:51:12.436Z,45.46
2023-03-30T19:53:42.542Z,45.16
2023-03-30T19:56:11.647Z,45.08
2023-03-30T19:58:40.833Z,45.31
2023-03-30T20:01:10.005Z,45.12
2023-03-30T20:03:39.187Z,45.37
2023-03-30T20:06:11.943Z,45.49
2023-03-30T20:08:41.257Z,45.23
2023-03-30T20:11:10.943Z,45.25
2023-03-30T20:13:45.780Z,45.17
2023-03-30T20:16:20.669Z,45.50
2023-03-30T20:18:51.897Z,45.23
2023-03-30T20:21:21.897Z,45.30
2023-03-30T20:23:51.112Z,45.24
2023-03-30T20:26:19.746Z,45.47
2023-03-30T20:28:48.965Z,45.71
2023-03-30T20:31:17.573Z,45.17
2023-03-30T20:34:55.487Z,45.38
2023-03-30T20:37:24.337Z,45.38
2023-03-30T20:39:53.353Z,45.41
2023-03-30T20:42:26.632Z,45.49
2023-03-30T20:44:55.961Z,45.34
2023-03-30T20:47:26.364Z,45.45
2023-03-30T20:49:55.188Z,45.40
2023-03-30T20:52:24.159Z,45.54
2023-03-30T20:54:53.045Z,45.49
2023-03-30T20:57:21.748Z,45.58
2023-03-30T20:59:52.878Z,45.26
2023-03-30T21:02:21.332Z,45.40
2023-03-30T21:04:50.609Z,45.25
2023-03-30T21:07:19.099Z,45.36
2023-03-30T21:09:47.992Z,45.58
2023-03-30T21:12:16.469Z,45.43
2023-03-30T21:14:46.132Z,45.05
2023-03-30T21:17:14.671Z,45.36
2023-03-30T21:19:43.578Z,45.55
2023-03-30T21:22:11.977Z,45.50
2023-03-30T21:24:41.029Z,45.33
2023-03-30T21:27:09.348Z,45.63
2023-03-30T21:29:38.143Z,45.47
2023-03-30T21:32:06.785Z,45.61
2023-03-30T21:34:35.568Z,45.41
2023-03-30T21:37:04.124Z,45.37
2023-03-30T21:39:33.117Z,45.54
2023-03-30T21:42:01.566Z,45.49
2023-03-30T21:44:30.423Z,45.34
2023-03-30T21:46:58.901Z,45.62
2023-03-30T21:49:27.782Z,45.35
2023-03-30T21:51:56.345Z,45.36
2023-03-30T21:54:25.125Z,45.43
2023-03-30T21:56:53.512Z,45.45
2023-03-30T21:59:22.534Z,45.65
2023-03-30T22:01:50.940Z,45.54
2023-03-30T22:04:19.607Z,45.54
2023-03-30T22:06:48.042Z,45.47
2023-03-30T22:09:16.979Z,45.46
2023-03-30T22:11:45.392Z,45.46
2023-03-30T22:14:14.522Z,45.45
2023-03-30T22:16:42.967Z,45.82
2023-03-30T22:19:11.837Z,45.52
2023-03-30T22:21:40.322Z,45.25
2023-03-30T22:24:11.321Z,45.62
2023-03-30T22:26:40.583Z,45.53
2023-03-30T22:29:09.486Z,45.37
2023-03-30T22:31:37.854Z,45.66
2023-03-30T22:34:07.494Z,45.54
2023-03-30T22:36:35.942Z,45.56
2023-03-30T22:39:04.663Z,45.43
2023-03-30T22:41:33.022Z,45.53
2023-03-30T22:44:02.037Z,45.48
2023-03-30T22:46:30.680Z,45.79
2023-03-30T22:49:00.459Z,45.47
2023-03-30T22:51:28.912Z,45.64
2023-03-30T22:53:59.539Z,45.56
2023-03-30T22:56:28.748Z,45.72
2023-03-30T22:58:58.164Z,45.36
2023-03-30T23:01:29.275Z,45.54
2023-03-30T23:03:59.833Z,45.76
2023-03-30T23:06:28.398Z,45.66
2023-03-30T23:08:57.309Z,45.72
2023-03-30T23:11:26.628Z,45.68
2023-03-30T23:13:56.125Z,45.71
2023-03-30T23:16:24.676Z,45.65
2023-03-30T23:18:53.390Z,45.54
2023-03-30T23:21:22.493Z,45.71
2023-03-30T23:23:51.608Z,45.71
2023-03-30T23:26:20.008Z,45.64
2023-03-30T23:28:49.192Z,45.81
2023-03-30T23:31:19.231Z,45.57
2023-03-30T23:33:48.042Z,45.63
2023-03-30T23:36:17.483Z,45.97
2023-03-30T23:38:47.013Z,45.84
2023-03-30T23:41:18.325Z,45.73
2023-03-30T23:43:47.220Z,45.78
2023-03-30T23:46:16.429Z,45.77
2023-03-30T23:48:45.203Z,45.83
2023-03-30T23:51:13.696Z,45.88
2023-03-30T23:53:42.499Z,45.83
2023-03-30T23:56:17.779Z,45.98
2023-03-30T23:58:46.704Z,45.85
